Time;durP1;ratioP1;P1;durP2;ratioP2;P2;SDS_P1;SDS_P2;PMS_P1;PMS_P2;Temp;Humidity;BMP_temperature;BMP_pressure;BME280_temperature;BME280_humidity;BME280_pressure;Samples;Min_cycle;Max_cycle;Signal;HPM_P1;HPM_P2
2021/06/27 00:00:32;;;;;;;30.63;26.92;;;;;;;;;;5021524;28;20205;-73
2021/06/27 00:02:57;;;;;;;32.08;28.42;;;;;;;;;;5025955;28;20194;-71
2021/06/27 00:05:24;;;;;;;33.53;27.63;;;;;;;;;;5026182;28;20209;-72
2021/06/27 00:07:51;;;;;;;37.00;29.17;;;;;;;;;;5019654;28;20187;-72
2021/06/27 00:10:18;;;;;;;33.53;27.27;;;;;;;;;;5027571;28;20224;-72
2021/06/27 00:12:43;;;;;;;33.17;27.58;;;;;;;;;;5042199;28;20175;-73
2021/06/27 00:15:13;;;;;;;33.90;28.25;;;;;;;;;;5026218;28;20568;-72
2021/06/27 00:17:38;;;;;;;36.17;27.50;;;;;;;;;;5027332;28;20190;-73
2021/06/27 00:20:05;;;;;;;30.77;26.75;;;;;;;;;;5023691;28;20194;-72
2021/06/27 00:22:30;;;;;;;34.83;29.77;;;;;;;;;;5022477;28;20264;-72
2021/06/27 00:24:55;;;;;;;36.80;29.20;;;;;;;;;;5030763;28;20203;-72
2021/06/27 00:27:21;;;;;;;38.35;30.15;;;;;;;;;;5025868;28;20663;-72
2021/06/27 00:29:46;;;;;;;32.83;28.50;;;;;;;;;;5027466;28;20181;-70
2021/06/27 00:32:12;;;;;;;36.83;29.55;;;;;;;;;;5026884;28;20520;-72
2021/06/27 00:34:37;;;;;;;32.17;27.77;;;;;;;;;;5028557;28;20281;-71
2021/06/27 00:37:02;;;;;;;33.63;28.95;;;;;;;;;;5026847;28;20179;-72
2021/06/27 00:39:27;;;;;;;32.95;28.27;;;;;;;;;;5025221;28;20225;-73
2021/06/27 00:41:53;;;;;;;33.20;29.40;;;;;;;;;;5027263;28;20202;-73
2021/06/27 00:44:21;;;;;;;31.42;28.02;;;;;;;;;;5028657;28;20197;-72
2021/06/27 00:46:50;;;;;;;34.40;28.60;;;;;;;;;;5027419;28;20639;-72
2021/06/27 00:49:15;;;;;;;33.42;28.83;;;;;;;;;;5022838;28;20183;-73
2021/06/27 00:51:41;;;;;;;33.77;28.70;;;;;;;;;;5018195;28;20534;-73
2021/06/27 00:54:06;;;;;;;32.08;28.55;;;;;;;;;;5024397;28;20455;-73
2021/06/27 00:56:31;;;;;;;34.92;29.05;;;;;;;;;;5024651;28;20183;-72
2021/06/27 00:58:56;;;;;;;34.72;29.10;;;;;;;;;;5022197;28;20183;-72
2021/06/27 01:01:21;;;;;;;35.35;29.27;;;;;;;;;;5020978;28;20182;-73
2021/06/27 01:03:47;;;;;;;33.50;28.88;;;;;;;;;;5024542;28;20210;-73
2021/06/27 01:06:12;;;;;;;33.30;28.15;;;;;;;;;;5030245;28;20186;-73
2021/06/27 01:08:37;;;;;;;35.70;28.38;;;;;;;;;;5024464;28;20192;-73
2021/06/27 01:11:02;;;;;;;32.97;29.38;;;;;;;;;;5027721;28;20183;-73
2021/06/27 01:13:28;;;;;;;35.35;28.77;;;;;;;;;;5025359;28;20210;-73
2021/06/27 01:15:54;;;;;;;34.85;29.55;;;;;;;;;;5024475;28;20174;-72
2021/06/27 01:18:19;;;;;;;36.00;31.05;;;;;;;;;;5023410;28;20714;-72
2021/06/27 01:20:45;;;;;;;34.88;29.27;;;;;;;;;;5025219;28;20253;-73
2021/06/27 01:23:14;;;;;;;34.28;28.27;;;;;;;;;;5018655;28;20206;-73
2021/06/27 01:25:40;;;;;;;32.67;28.42;;;;;;;;;;5017726;28;20240;-72
2021/06/27 01:28:06;;;;;;;31.35;27.95;;;;;;;;;;5024425;28;20167;-73
2021/06/27 01:30:32;;;;;;;32.10;28.48;;;;;;;;;;5031067;28;20197;-72
2021/06/27 01:32:59;;;;;;;32.65;27.95;;;;;;;;;;5022253;28;20253;-72
2021/06/27 01:35:25;;;;;;;29.67;26.58;;;;;;;;;;5031215;28;20625;-72
2021/06/27 01:37:52;;;;;;;30.77;27.42;;;;;;;;;;5028310;28;20644;-72
2021/06/27 01:40:18;;;;;;;32.90;27.98;;;;;;;;;;5025372;28;20221;-72
2021/06/27 01:42:45;;;;;;;32.55;26.75;;;;;;;;;;5021172;28;20187;-72
2021/06/27 01:45:16;;;;;;;35.03;28.95;;;;;;;;;;5025674;28;20205;-73
2021/06/27 01:47:42;;;;;;;31.40;28.02;;;;;;;;;;5026307;28;20258;-72
2021/06/27 01:50:08;;;;;;;31.55;27.50;;;;;;;;;;5025378;28;20170;-72
2021/06/27 01:52:33;;;;;;;33.92;28.58;;;;;;;;;;5024659;28;20178;-73
2021/06/27 01:54:59;;;;;;;34.00;29.52;;;;;;;;;;5018221;28;20202;-72
2021/06/27 01:57:24;;;;;;;33.80;28.25;;;;;;;;;;5025395;28;20208;-72
2021/06/27 01:59:49;;;;;;;35.22;27.67;;;;;;;;;;5018878;28;20182;-73
2021/06/27 02:02:15;;;;;;;31.85;28.48;;;;;;;;;;5020992;28;20208;-72
2021/06/27 02:04:40;;;;;;;34.78;28.83;;;;;;;;;;5022805;28;20198;-72
2021/06/27 02:07:06;;;;;;;35.70;29.63;;;;;;;;;;5028720;28;20730;-72
2021/06/27 02:09:31;;;;;;;33.90;30.30;;;;;;;;;;5025456;28;20178;-73
2021/06/27 02:11:56;;;;;;;34.17;28.42;;;;;;;;;;5018788;28;20718;-72
2021/06/27 02:14:21;;;;;;;33.97;29.05;;;;;;;;;;5013994;28;20206;-72
2021/06/27 02:16:49;;;;;;;37.58;29.90;;;;;;;;;;5018440;28;20273;-72
2021/06/27 02:19:14;;;;;;;33.28;29.20;;;;;;;;;;5023765;28;20174;-72
2021/06/27 02:21:39;;;;;;;36.17;30.77;;;;;;;;;;5027238;28;20194;-72
2021/06/27 02:24:06;;;;;;;34.78;30.90;;;;;;;;;;5027890;28;20480;-72
2021/06/27 02:26:31;;;;;;;34.38;28.85;;;;;;;;;;5023603;28;20244;-72
2021/06/27 02:28:57;;;;;;;37.25;30.45;;;;;;;;;;5023020;28;20640;-72
2021/06/27 02:31:23;;;;;;;34.33;29.83;;;;;;;;;;5028612;28;20185;-72
2021/06/27 02:33:48;;;;;;;33.58;29.63;;;;;;;;;;5044520;28;20202;-72
2021/06/27 02:36:14;;;;;;;33.88;30.23;;;;;;;;;;5052638;28;20191;-73
2021/06/27 02:38:39;;;;;;;36.25;32.13;;;;;;;;;;5057252;28;20163;-71
2021/06/27 02:41:05;;;;;;;38.00;31.38;;;;;;;;;;5050686;28;20202;-71
2021/06/27 02:43:30;;;;;;;36.85;29.80;;;;;;;;;;5048132;28;20312;-74
2021/06/27 02:45:56;;;;;;;34.60;30.40;;;;;;;;;;5048669;28;20187;-72
2021/06/27 02:48:21;;;;;;;36.47;30.63;;;;;;;;;;5058664;28;20158;-70
2021/06/27 02:50:46;;;;;;;37.65;32.60;;;;;;;;;;5056001;28;20174;-71
2021/06/27 02:53:11;;;;;;;33.80;30.15;;;;;;;;;;5052686;28;20186;-71
2021/06/27 02:55:37;;;;;;;35.08;31.20;;;;;;;;;;5042206;28;20229;-71
2021/06/27 02:58:02;;;;;;;37.38;31.08;;;;;;;;;;5033605;28;20620;-71
2021/06/27 03:00:29;;;;;;;36.60;32.30;;;;;;;;;;5026600;28;20195;-71
2021/06/27 03:02:54;;;;;;;39.05;31.92;;;;;;;;;;5027430;28;20181;-72
2021/06/27 03:05:19;;;;;;;37.25;31.52;;;;;;;;;;5033144;28;20217;-72
2021/06/27 03:07:45;;;;;;;38.63;32.35;;;;;;;;;;5032262;28;20301;-71
2021/06/27 03:10:11;;;;;;;35.33;31.13;;;;;;;;;;5027774;28;20178;-72
2021/06/27 03:12:37;;;;;;;38.42;32.17;;;;;;;;;;5023965;28;20174;-72
2021/06/27 03:15:03;;;;;;;49.47;35.35;;;;;;;;;;5023742;28;20205;-71
2021/06/27 03:17:28;;;;;;;40.13;34.22;;;;;;;;;;5028446;28;20181;-72
2021/06/27 03:19:53;;;;;;;40.73;34.57;;;;;;;;;;5024442;28;20185;-72
2021/06/27 03:22:19;;;;;;;40.83;34.90;;;;;;;;;;5024596;28;20542;-72
2021/06/27 03:24:44;;;;;;;38.63;32.72;;;;;;;;;;5031913;28;20470;-72
2021/06/27 03:27:09;;;;;;;40.92;34.90;;;;;;;;;;5029962;28;20178;-72
2021/06/27 03:29:34;;;;;;;40.00;34.00;;;;;;;;;;5029597;28;20229;-72
2021/06/27 03:31:59;;;;;;;43.25;34.97;;;;;;;;;;5025283;28;20530;-71
2021/06/27 03:34:25;;;;;;;40.88;34.95;;;;;;;;;;5029132;28;20281;-73
2021/06/27 03:36:50;;;;;;;44.63;35.83;;;;;;;;;;5025920;28;20174;-71
2021/06/27 03:39:18;;;;;;;40.60;34.83;;;;;;;;;;5025892;28;20198;-70
2021/06/27 03:41:47;;;;;;;42.53;34.25;;;;;;;;;;5026434;28;20194;-72
2021/06/27 03:44:13;;;;;;;40.05;33.25;;;;;;;;;;5026459;28;20633;-72
2021/06/27 03:46:38;;;;;;;41.38;34.53;;;;;;;;;;5033158;28;20679;-72
2021/06/27 03:49:03;;;;;;;44.08;35.08;;;;;;;;;;5025087;28;20175;-72
2021/06/27 03:51:29;;;;;;;42.58;35.38;;;;;;;;;;5028913;28;20284;-71
2021/06/27 03:53:54;;;;;;;42.90;35.28;;;;;;;;;;5023831;28;20249;-72
2021/06/27 03:56:19;;;;;;;43.33;35.95;;;;;;;;;;5026428;28;20217;-72
2021/06/27 03:58:45;;;;;;;46.70;35.88;;;;;;;;;;5027686;28;20619;-72
2021/06/27 04:01:10;;;;;;;39.53;34.10;;;;;;;;;;5027346;28;20178;-71
2021/06/27 04:03:35;;;;;;;42.25;35.17;;;;;;;;;;5031191;28;20292;-72
2021/06/27 04:06:00;;;;;;;44.60;35.03;;;;;;;;;;5028504;28;20213;-72
2021/06/27 04:08:26;;;;;;;40.45;33.78;;;;;;;;;;5025735;28;20563;-72
2021/06/27 04:10:56;;;;;;;38.40;33.50;;;;;;;;;;5022444;28;20202;-72
2021/06/27 04:13:21;;;;;;;40.05;34.70;;;;;;;;;;5020779;28;20174;-72
2021/06/27 04:15:47;;;;;;;41.93;35.83;;;;;;;;;;5027056;28;20269;-72
2021/06/27 04:18:12;;;;;;;40.38;34.85;;;;;;;;;;5027246;28;20428;-73
2021/06/27 04:20:37;;;;;;;42.93;36.37;;;;;;;;;;5031060;28;20208;-72
2021/06/27 04:23:02;;;;;;;41.38;36.20;;;;;;;;;;5028940;28;20800;-72
2021/06/27 04:25:27;;;;;;;40.15;35.80;;;;;;;;;;5025608;28;20696;-71
2021/06/27 04:27:53;;;;;;;43.53;35.17;;;;;;;;;;5028830;28;20182;-72
2021/06/27 04:30:18;;;;;;;39.47;34.05;;;;;;;;;;5027850;28;20178;-72
2021/06/27 04:32:43;;;;;;;40.00;33.90;;;;;;;;;;5029665;28;20213;-71
2021/06/27 04:35:09;;;;;;;42.92;35.78;;;;;;;;;;5028966;28;20691;-72
2021/06/27 04:37:34;;;;;;;42.53;35.58;;;;;;;;;;5029143;28;20182;-72
2021/06/27 04:40:00;;;;;;;40.03;33.85;;;;;;;;;;5027276;28;20247;-71
2021/06/27 04:42:25;;;;;;;42.47;34.42;;;;;;;;;;5033668;28;20190;-71
2021/06/27 04:44:50;;;;;;;41.95;34.72;;;;;;;;;;5029246;28;20303;-70
2021/06/27 04:47:15;;;;;;;44.97;33.53;;;;;;;;;;5030389;28;20179;-72
2021/06/27 04:49:41;;;;;;;41.15;33.92;;;;;;;;;;5024270;28;20618;-72
2021/06/27 04:52:07;;;;;;;40.97;32.53;;;;;;;;;;5032903;28;20605;-71
2021/06/27 04:54:32;;;;;;;38.03;33.30;;;;;;;;;;5031132;28;20727;-72
2021/06/27 04:56:58;;;;;;;35.80;30.40;;;;;;;;;;5032417;28;20170;-71
2021/06/27 04:59:23;;;;;;;38.60;31.23;;;;;;;;;;5027192;28;20185;-72
2021/06/27 05:01:48;;;;;;;35.00;30.30;;;;;;;;;;5019409;28;20190;-72
2021/06/27 05:04:13;;;;;;;37.17;31.98;;;;;;;;;;5015767;28;20607;-72
2021/06/27 05:06:38;;;;;;;36.95;31.20;;;;;;;;;;5024182;28;20276;-73
2021/06/27 05:09:04;;;;;;;35.08;31.27;;;;;;;;;;5023928;28;20189;-72
2021/06/27 05:11:29;;;;;;;36.08;30.17;;;;;;;;;;5022116;28;20200;-72
2021/06/27 05:13:54;;;;;;;35.30;31.48;;;;;;;;;;5025737;28;20198;-71
2021/06/27 05:16:19;;;;;;;34.57;30.50;;;;;;;;;;5025745;28;20686;-72
2021/06/27 05:18:44;;;;;;;32.30;28.77;;;;;;;;;;5025283;28;20419;-72
2021/06/27 05:21:09;;;;;;;37.72;31.83;;;;;;;;;;5021312;28;20805;-72
2021/06/27 05:23:35;;;;;;;34.37;30.60;;;;;;;;;;5022746;28;20668;-71
2021/06/27 05:26:00;;;;;;;32.92;29.33;;;;;;;;;;5024394;28;20462;-72
2021/06/27 05:28:27;;;;;;;33.05;28.70;;;;;;;;;;5019583;28;20253;-72
2021/06/27 05:30:52;;;;;;;34.22;30.15;;;;;;;;;;5024767;28;20256;-72
2021/06/27 05:33:17;;;;;;;32.07;28.40;;;;;;;;;;5020821;28;20229;-72
2021/06/27 05:35:43;;;;;;;36.07;29.50;;;;;;;;;;5025139;28;20427;-72
2021/06/27 05:38:08;;;;;;;34.83;29.75;;;;;;;;;;5025684;28;20427;-71
2021/06/27 05:40:34;;;;;;;35.58;28.95;;;;;;;;;;5021543;28;20187;-72
2021/06/27 05:42:59;;;;;;;31.30;27.90;;;;;;;;;;5019445;28;20687;-72
2021/06/27 05:45:24;;;;;;;32.47;27.98;;;;;;;;;;5026122;28;20256;-75
2021/06/27 05:47:50;;;;;;;29.85;26.73;;;;;;;;;;5017450;28;20240;-72
2021/06/27 05:50:15;;;;;;;31.27;27.35;;;;;;;;;;5022385;28;20302;-72
2021/06/27 05:52:40;;;;;;;29.07;25.23;;;;;;;;;;5023040;28;20562;-73
2021/06/27 05:55:06;;;;;;;27.42;24.30;;;;;;;;;;5024878;28;20455;-73
2021/06/27 05:57:31;;;;;;;27.05;24.23;;;;;;;;;;5020058;28;20228;-72
2021/06/27 05:59:56;;;;;;;26.80;23.97;;;;;;;;;;5027604;28;20175;-72
2021/06/27 06:02:21;;;;;;;27.15;24.25;;;;;;;;;;5019265;28;20435;-73
2021/06/27 06:04:47;;;;;;;26.13;23.50;;;;;;;;;;5023236;28;20203;-72
2021/06/27 06:07:12;;;;;;;25.95;23.13;;;;;;;;;;5027550;28;20431;-71
2021/06/27 06:09:37;;;;;;;25.00;22.48;;;;;;;;;;5027400;28;20175;-72
2021/06/27 06:12:02;;;;;;;25.00;22.33;;;;;;;;;;5026851;28;20184;-73
2021/06/27 06:14:28;;;;;;;25.55;22.77;;;;;;;;;;5019522;28;20525;-73
2021/06/27 06:16:54;;;;;;;24.83;21.80;;;;;;;;;;5030307;28;20194;-73
2021/06/27 06:19:20;;;;;;;24.77;22.23;;;;;;;;;;5020498;28;20170;-72
2021/06/27 06:21:49;;;;;;;23.63;21.30;;;;;;;;;;5029220;28;20664;-73
2021/06/27 06:24:14;;;;;;;24.77;22.20;;;;;;;;;;5029438;28;20234;-73
2021/06/27 06:26:40;;;;;;;26.20;23.45;;;;;;;;;;5023864;28;20691;-73
2021/06/27 06:29:05;;;;;;;24.65;22.05;;;;;;;;;;5019502;28;20178;-73
2021/06/27 06:31:30;;;;;;;24.85;21.67;;;;;;;;;;5026886;28;20174;-73
2021/06/27 06:33:55;;;;;;;27.98;22.40;;;;;;;;;;5022956;28;20234;-73
2021/06/27 06:36:21;;;;;;;24.75;22.23;;;;;;;;;;5021761;28;20185;-73
2021/06/27 06:38:46;;;;;;;24.45;21.95;;;;;;;;;;5019433;28;20179;-73
2021/06/27 06:41:11;;;;;;;28.17;23.10;;;;;;;;;;5025433;28;20190;-73
2021/06/27 06:43:36;;;;;;;24.83;22.27;;;;;;;;;;5029231;28;20612;-73
2021/06/27 06:46:02;;;;;;;27.38;23.40;;;;;;;;;;5019278;28;20455;-71
2021/06/27 06:48:27;;;;;;;25.77;22.98;;;;;;;;;;5024920;28;20252;-72
2021/06/27 06:50:52;;;;;;;26.08;23.33;;;;;;;;;;5017441;28;20197;-71
2021/06/27 06:53:18;;;;;;;25.17;22.30;;;;;;;;;;5016147;28;20642;-74
2021/06/27 06:55:43;;;;;;;25.13;22.63;;;;;;;;;;5026052;28;20252;-72
2021/06/27 06:58:08;;;;;;;24.80;22.07;;;;;;;;;;5027111;28;20265;-73
2021/06/27 07:00:33;;;;;;;23.60;20.70;;;;;;;;;;5026589;28;20422;-73
2021/06/27 07:02:58;;;;;;;23.83;21.45;;;;;;;;;;5022705;28;20174;-73
2021/06/27 07:05:24;;;;;;;24.02;21.30;;;;;;;;;;5026109;28;20198;-71
2021/06/27 07:07:49;;;;;;;23.48;21.15;;;;;;;;;;5034787;28;20209;-72
2021/06/27 07:10:14;;;;;;;23.37;20.93;;;;;;;;;;5039727;28;20178;-70
2021/06/27 07:12:40;;;;;;;22.50;20.30;;;;;;;;;;5046958;28;20424;-72
2021/06/27 07:15:05;;;;;;;21.65;19.38;;;;;;;;;;5038450;28;20214;-73
2021/06/27 07:17:31;;;;;;;19.88;17.85;;;;;;;;;;5034344;28;20305;-72
2021/06/27 07:19:56;;;;;;;21.80;19.65;;;;;;;;;;5030958;28;20205;-74
2021/06/27 07:22:21;;;;;;;22.55;19.60;;;;;;;;;;5039410;28;20186;-73
2021/06/27 07:24:46;;;;;;;21.83;19.60;;;;;;;;;;5045896;28;20240;-72
2021/06/27 07:27:12;;;;;;;21.30;19.20;;;;;;;;;;5040092;28;20206;-72
2021/06/27 07:29:37;;;;;;;21.13;19.02;;;;;;;;;;5039610;28;20450;-72
2021/06/27 07:32:02;;;;;;;20.05;18.13;;;;;;;;;;5020630;28;20853;-73
2021/06/27 07:34:27;;;;;;;21.27;18.75;;;;;;;;;;5009304;28;20615;-72
2021/06/27 07:36:53;;;;;;;22.70;19.85;;;;;;;;;;5011872;28;20265;-72
2021/06/27 07:39:18;;;;;;;20.52;18.48;;;;;;;;;;5020593;28;20560;-74
2021/06/27 07:41:44;;;;;;;19.90;17.90;;;;;;;;;;5020175;28;20193;-74
2021/06/27 07:44:09;;;;;;;20.52;18.48;;;;;;;;;;5014777;28;20245;-73
2021/06/27 07:46:34;;;;;;;21.47;19.27;;;;;;;;;;5016453;28;20197;-74
2021/06/27 07:48:59;;;;;;;22.55;20.25;;;;;;;;;;5009937;28;20462;-74
2021/06/27 07:51:25;;;;;;;19.70;17.80;;;;;;;;;;5009465;28;20711;-74
2021/06/27 07:53:50;;;;;;;20.88;18.48;;;;;;;;;;5011272;28;20443;-74
2021/06/27 07:56:15;;;;;;;22.85;20.58;;;;;;;;;;5010972;28;20798;-71
2021/06/27 07:58:40;;;;;;;19.73;17.77;;;;;;;;;;5009293;28;20181;-74
2021/06/27 08:01:05;;;;;;;19.73;17.70;;;;;;;;;;5016785;28;20178;-74
2021/06/27 08:03:31;;;;;;;21.25;19.15;;;;;;;;;;5020709;28;20964;-71
2021/06/27 08:05:56;;;;;;;20.52;18.52;;;;;;;;;;5018812;28;20202;-71
2021/06/27 08:08:21;;;;;;;20.77;17.80;;;;;;;;;;5021318;28;20712;-72
2021/06/27 08:10:46;;;;;;;20.85;18.70;;;;;;;;;;5018998;28;20436;-74
2021/06/27 08:13:12;;;;;;;18.98;17.17;;;;;;;;;;5019966;28;20187;-72
2021/06/27 08:15:37;;;;;;;18.88;16.98;;;;;;;;;;5026950;28;20181;-70
2021/06/27 08:18:02;;;;;;;17.02;15.32;;;;;;;;;;5021488;28;20231;-73
2021/06/27 08:20:28;;;;;;;18.67;16.88;;;;;;;;;;5021716;28;20178;-72
2021/06/27 08:22:53;;;;;;;16.40;14.88;;;;;;;;;;5020714;28;20186;-72
2021/06/27 08:25:19;;;;;;;17.50;15.35;;;;;;;;;;5021832;28;20274;-72
2021/06/27 08:27:44;;;;;;;16.90;15.27;;;;;;;;;;5023076;28;20178;-72
2021/06/27 08:30:10;;;;;;;17.70;15.88;;;;;;;;;;5021060;28;20185;-72
2021/06/27 08:32:35;;;;;;;15.95;14.45;;;;;;;;;;5013843;28;20645;-71
2021/06/27 08:35:01;;;;;;;16.88;15.27;;;;;;;;;;5022934;28;20202;-72
2021/06/27 08:37:26;;;;;;;16.33;14.80;;;;;;;;;;5017902;28;20185;-72
2021/06/27 08:39:52;;;;;;;14.70;13.35;;;;;;;;;;5022177;28;20620;-71
2021/06/27 08:42:20;;;;;;;16.90;15.20;;;;;;;;;;5019223;28;20701;-72
2021/06/27 08:44:46;;;;;;;15.98;14.48;;;;;;;;;;5017512;28;20206;-72
2021/06/27 08:47:15;;;;;;;16.45;14.93;;;;;;;;;;5020686;28;20186;-71
2021/06/27 08:49:40;;;;;;;16.33;14.73;;;;;;;;;;5020042;28;20306;-71
2021/06/27 08:52:05;;;;;;;17.13;15.43;;;;;;;;;;5018762;28;20672;-72
2021/06/27 08:54:31;;;;;;;15.63;14.23;;;;;;;;;;5018749;28;20198;-72
2021/06/27 08:56:56;;;;;;;17.70;15.90;;;;;;;;;;5019923;28;20210;-72
2021/06/27 08:59:21;;;;;;;13.63;12.33;;;;;;;;;;5022451;28;20796;-72
2021/06/27 09:01:46;;;;;;;14.80;13.27;;;;;;;;;;5021424;28;20442;-72
2021/06/27 09:04:14;;;;;;;12.37;11.27;;;;;;;;;;5020868;28;20205;-72
2021/06/27 09:06:40;;;;;;;12.10;11.07;;;;;;;;;;5023536;28;20804;-73
2021/06/27 09:09:13;;;;;;;13.25;11.95;;;;;;;;;;5028723;28;20229;-72
2021/06/27 09:11:40;;;;;;;12.38;11.05;;;;;;;;;;5012939;28;20722;-72
2021/06/27 09:14:25;;;;;;;12.50;11.32;;;;;;;;;;5022600;28;20282;-75
2021/06/27 09:17:04;;;;;;;11.02;10.07;;;;;;;;;;5024539;28;20225;-75
2021/06/27 09:19:29;;;;;;;11.20;10.27;;;;;;;;;;5018525;28;20212;-76
2021/06/27 09:22:12;;;;;;;11.03;10.03;;;;;;;;;;5024281;28;20179;-74
2021/06/27 09:24:37;;;;;;;12.05;10.77;;;;;;;;;;5024594;28;20301;-75
2021/06/27 09:27:37;;;;;;;11.40;10.40;;;;;;;;;;5018856;28;20980;-76
2021/06/27 09:30:12;;;;;;;12.48;11.35;;;;;;;;;;4990077;28;22230;-75
2021/06/27 09:32:48;;;;;;;11.93;10.73;;;;;;;;;;5016048;28;20647;-75
2021/06/27 09:35:13;;;;;;;12.48;11.27;;;;;;;;;;5019192;28;20212;-74
2021/06/27 09:37:40;;;;;;;11.83;10.63;;;;;;;;;;5017971;28;20269;-74
2021/06/27 09:40:05;;;;;;;10.27;9.27;;;;;;;;;;5023247;28;20427;-76
2021/06/27 09:42:30;;;;;;;10.40;9.20;;;;;;;;;;5022316;28;20213;-75
2021/06/27 09:44:59;;;;;;;10.55;9.55;;;;;;;;;;5019342;28;20275;-75
2021/06/27 09:47:24;;;;;;;11.77;10.68;;;;;;;;;;5018676;28;20220;-76
2021/06/27 09:49:50;;;;;;;11.63;10.25;;;;;;;;;;5024964;28;20178;-77
2021/06/27 09:52:15;;;;;;;10.73;9.87;;;;;;;;;;5025410;28;20188;-76
2021/06/27 09:54:41;;;;;;;10.47;9.47;;;;;;;;;;5008709;28;20453;-76
2021/06/27 09:57:07;;;;;;;10.65;9.75;;;;;;;;;;5013451;28;20431;-77
2021/06/27 09:59:37;;;;;;;10.00;9.00;;;;;;;;;;5012917;28;20194;-74
2021/06/27 10:02:02;;;;;;;12.52;11.43;;;;;;;;;;5011670;28;20296;-76
2021/06/27 10:04:28;;;;;;;11.85;10.68;;;;;;;;;;5015420;28;20208;-75
2021/06/27 10:06:54;;;;;;;10.50;9.60;;;;;;;;;;5018426;28;20183;-75
2021/06/27 10:09:21;;;;;;;10.90;10.05;;;;;;;;;;5011231;28;20406;-76
2021/06/27 10:11:54;;;;;;;10.48;9.43;;;;;;;;;;5014442;28;20181;-77
2021/06/27 10:14:19;;;;;;;10.38;9.55;;;;;;;;;;5016817;28;20281;-76
2021/06/27 10:16:44;;;;;;;9.40;8.48;;;;;;;;;;5013449;28;20700;-76
2021/06/27 10:19:10;;;;;;;10.43;9.63;;;;;;;;;;5018097;28;20191;-74
2021/06/27 10:21:35;;;;;;;11.48;10.48;;;;;;;;;;5015019;28;20201;-76
2021/06/27 10:24:01;;;;;;;9.30;8.48;;;;;;;;;;5021980;28;20207;-77
2021/06/27 10:26:27;;;;;;;8.45;7.75;;;;;;;;;;5018616;28;20273;-76
2021/06/27 10:28:52;;;;;;;8.05;7.35;;;;;;;;;;5017608;28;20566;-76
2021/06/27 10:31:19;;;;;;;8.93;8.13;;;;;;;;;;5015556;28;20208;-75
2021/06/27 10:33:45;;;;;;;7.95;7.25;;;;;;;;;;5017312;28;20303;-77
2021/06/27 10:36:12;;;;;;;8.77;7.75;;;;;;;;;;5018759;28;20648;-77
2021/06/27 10:38:41;;;;;;;7.32;6.63;;;;;;;;;;5018872;28;20185;-77
2021/06/27 10:41:06;;;;;;;7.32;6.72;;;;;;;;;;5014244;28;20699;-77
2021/06/27 10:43:50;;;;;;;6.93;6.43;;;;;;;;;;5013273;28;20213;-76
2021/06/27 10:46:34;;;;;;;6.78;6.28;;;;;;;;;;5015025;28;20195;-75
2021/06/27 10:48:59;;;;;;;6.88;6.18;;;;;;;;;;5017908;28;20281;-75
2021/06/27 10:51:44;;;;;;;6.85;6.28;;;;;;;;;;5018092;28;20195;-76
2021/06/27 10:54:11;;;;;;;7.30;6.63;;;;;;;;;;5019014;28;20198;-76
2021/06/27 10:56:56;;;;;;;6.03;5.55;;;;;;;;;;5021673;28;20242;-75
2021/06/27 10:59:40;;;;;;;6.72;6.13;;;;;;;;;;5022494;28;20174;-76
2021/06/27 11:02:20;;;;;;;6.40;5.80;;;;;;;;;;5022341;28;20305;-77
2021/06/27 11:04:46;;;;;;;6.70;6.10;;;;;;;;;;5017438;28;20654;-76
2021/06/27 11:07:30;;;;;;;6.68;5.65;;;;;;;;;;5019092;28;20779;-73
2021/06/27 11:10:14;;;;;;;6.10;5.60;;;;;;;;;;5026564;28;20244;-73
2021/06/27 11:12:54;;;;;;;7.13;5.93;;;;;;;;;;5023285;28;20166;-76
2021/06/27 11:15:19;;;;;;;7.38;6.75;;;;;;;;;;5021025;28;20216;-76
2021/06/27 11:17:55;;;;;;;6.00;5.33;;;;;;;;;;5021696;28;20182;-76
2021/06/27 11:20:20;;;;;;;6.75;6.15;;;;;;;;;;5015111;28;20514;-77
2021/06/27 11:22:47;;;;;;;7.30;6.60;;;;;;;;;;5015265;28;20260;-75
2021/06/27 11:25:32;;;;;;;7.15;6.40;;;;;;;;;;5019125;28;20280;-75
2021/06/27 11:27:57;;;;;;;6.80;6.30;;;;;;;;;;5028646;28;20287;-75
2021/06/27 11:30:25;;;;;;;6.47;5.97;;;;;;;;;;5039255;28;20163;-74
2021/06/27 11:32:51;;;;;;;6.18;5.78;;;;;;;;;;5053622;28;20241;-76
2021/06/27 11:35:36;;;;;;;7.03;6.43;;;;;;;;;;5055993;28;20245;-73
2021/06/27 11:38:01;;;;;;;6.80;6.30;;;;;;;;;;5053834;28;20159;-73
2021/06/27 11:40:39;;;;;;;5.75;5.35;;;;;;;;;;5047130;28;20178;-74
2021/06/27 11:43:04;;;;;;;6.20;5.65;;;;;;;;;;5044913;28;20216;-73
2021/06/27 11:45:29;;;;;;;6.30;5.80;;;;;;;;;;5044445;28;20201;-75
2021/06/27 11:47:55;;;;;;;5.70;5.20;;;;;;;;;;5049996;28;20177;-74
2021/06/27 11:50:22;;;;;;;6.13;5.67;;;;;;;;;;5044893;28;20190;-73
2021/06/27 11:52:51;;;;;;;6.53;6.03;;;;;;;;;;5029494;28;20236;-75
2021/06/27 11:55:17;;;;;;;5.38;4.88;;;;;;;;;;5021591;28;20209;-75
2021/06/27 11:57:42;;;;;;;5.00;4.57;;;;;;;;;;5020733;28;20449;-74
2021/06/27 12:00:09;;;;;;;5.95;5.50;;;;;;;;;;5020990;28;20269;-75
2021/06/27 12:02:36;;;;;;;5.18;4.78;;;;;;;;;;5020458;28;20182;-77
2021/06/27 12:05:02;;;;;;;6.13;5.30;;;;;;;;;;5018575;28;20218;-74
2021/06/27 12:07:31;;;;;;;5.03;4.63;;;;;;;;;;5018419;28;20186;-74
2021/06/27 12:09:57;;;;;;;5.32;4.47;;;;;;;;;;5013993;28;20192;-75
2021/06/27 12:12:37;;;;;;;5.40;4.93;;;;;;;;;;5015619;28;20557;-75
2021/06/27 12:15:04;;;;;;;5.03;4.47;;;;;;;;;;5021023;28;20205;-74
2021/06/27 12:17:29;;;;;;;5.97;4.97;;;;;;;;;;5018735;28;20236;-76
2021/06/27 12:19:54;;;;;;;5.10;4.57;;;;;;;;;;5016040;28;20189;-74
2021/06/27 12:22:20;;;;;;;5.53;5.10;;;;;;;;;;5016872;28;20190;-76
2021/06/27 12:24:46;;;;;;;5.40;4.93;;;;;;;;;;5019026;28;20554;-73
2021/06/27 12:27:11;;;;;;;6.53;5.20;;;;;;;;;;5019343;28;20181;-77
2021/06/27 12:29:37;;;;;;;4.93;4.53;;;;;;;;;;5014836;28;20271;-74
2021/06/27 12:32:05;;;;;;;4.72;4.40;;;;;;;;;;5015353;28;20220;-75
2021/06/27 12:34:31;;;;;;;4.63;3.90;;;;;;;;;;5017082;28;20230;-77
2021/06/27 12:36:56;;;;;;;5.07;4.68;;;;;;;;;;5020245;28;20182;-77
2021/06/27 12:39:23;;;;;;;5.03;4.63;;;;;;;;;;5018491;28;20177;-77
2021/06/27 12:41:48;;;;;;;4.40;4.10;;;;;;;;;;5014165;28;20194;-76
2021/06/27 12:44:15;;;;;;;4.35;3.95;;;;;;;;;;5019719;28;21667;-77
2021/06/27 12:46:43;;;;;;;4.63;4.22;;;;;;;;;;5018523;28;20174;-76
2021/06/27 12:49:11;;;;;;;3.80;3.50;;;;;;;;;;5014655;28;20271;-77
2021/06/27 12:51:56;;;;;;;4.53;3.83;;;;;;;;;;5019351;28;20246;-76
2021/06/27 12:54:35;;;;;;;4.32;3.90;;;;;;;;;;5007108;28;20213;-78
2021/06/27 12:57:03;;;;;;;4.45;4.00;;;;;;;;;;5017571;28;20271;-78
2021/06/27 12:59:34;;;;;;;4.85;4.45;;;;;;;;;;5021396;28;20228;-77
2021/06/27 13:02:01;;;;;;;5.82;3.55;;;;;;;;;;5019438;28;20186;-76
2021/06/27 13:04:34;;;;;;;3.63;3.33;;;;;;;;;;5016868;28;20583;-73
2021/06/27 13:07:01;;;;;;;3.50;3.25;;;;;;;;;;5019322;28;20182;-78
2021/06/27 13:09:27;;;;;;;4.30;3.90;;;;;;;;;;5019894;28;20619;-77
2021/06/27 13:12:07;;;;;;;4.25;3.83;;;;;;;;;;5019850;28;20265;-73
2021/06/27 13:14:33;;;;;;;3.83;3.53;;;;;;;;;;5012719;28;20236;-75
2021/06/27 13:17:02;;;;;;;4.00;3.70;;;;;;;;;;5017512;28;20189;-76
2021/06/27 13:19:27;;;;;;;3.88;3.20;;;;;;;;;;5016119;28;20272;-75
2021/06/27 13:22:06;;;;;;;3.73;3.43;;;;;;;;;;5017209;28;20319;-77
2021/06/27 13:24:51;;;;;;;4.43;3.10;;;;;;;;;;5015825;28;20901;-75
2021/06/27 13:27:16;;;;;;;3.20;2.90;;;;;;;;;;5020791;28;20434;-74
2021/06/27 13:29:42;;;;;;;3.57;3.27;;;;;;;;;;5018211;28;20679;-75
2021/06/27 13:32:22;;;;;;;3.93;3.63;;;;;;;;;;5017501;28;20265;-76
2021/06/27 13:34:47;;;;;;;4.10;3.13;;;;;;;;;;5017561;28;20454;-75
2021/06/27 13:37:13;;;;;;;3.57;3.27;;;;;;;;;;5020551;28;20188;-76
2021/06/27 13:39:38;;;;;;;4.15;3.72;;;;;;;;;;5019095;28;20317;-77
2021/06/27 13:42:03;;;;;;;3.63;3.40;;;;;;;;;;5018684;28;20259;-76
2021/06/27 13:44:29;;;;;;;3.65;3.40;;;;;;;;;;5018642;28;20221;-77
2021/06/27 13:46:54;;;;;;;4.30;3.90;;;;;;;;;;5016897;28;20178;-77
2021/06/27 13:49:19;;;;;;;5.03;4.63;;;;;;;;;;5018024;28;20627;-76
2021/06/27 13:51:45;;;;;;;3.80;3.50;;;;;;;;;;5015956;28;20182;-76
2021/06/27 13:54:10;;;;;;;5.10;4.20;;;;;;;;;;5020739;28;20225;-75
2021/06/27 13:56:35;;;;;;;4.78;3.78;;;;;;;;;;5016871;28;20170;-77
2021/06/27 13:59:01;;;;;;;3.97;3.57;;;;;;;;;;5019795;28;20182;-78
2021/06/27 14:01:27;;;;;;;3.63;3.33;;;;;;;;;;5015035;28;20188;-73
2021/06/27 14:03:53;;;;;;;4.40;3.22;;;;;;;;;;5019430;28;20197;-72
2021/06/27 14:06:18;;;;;;;5.32;3.88;;;;;;;;;;5016916;28;20204;-74
2021/06/27 14:08:45;;;;;;;4.40;3.15;;;;;;;;;;5017274;28;20170;-72
2021/06/27 14:11:10;;;;;;;3.70;3.22;;;;;;;;;;5017548;28;20177;-72
2021/06/27 14:13:36;;;;;;;3.95;3.65;;;;;;;;;;5018373;28;20569;-71
2021/06/27 14:16:03;;;;;;;4.30;3.90;;;;;;;;;;5016454;28;20320;-74
2021/06/27 14:18:28;;;;;;;3.83;3.53;;;;;;;;;;5016849;28;20232;-70
2021/06/27 14:20:54;;;;;;;3.42;3.13;;;;;;;;;;5018116;28;20185;-72